TimeEST,TemperatureF,Dew PointF,Humidity,Sea Level PressureIn,VisibilityMPH,Wind Direction,Wind SpeedMPH,Gust SpeedMPH,PrecipitationIn,Events,Conditions,WindDirDegrees,DateUTC
12:53 AM,33.1,24.1,70,30.35,10.0,Calm,Calm,-,N/A,,Clear,0,2012-12-14 05:53:00
1:53 AM,33.1,23.0,66,30.33,10.0,Calm,Calm,-,N/A,,Clear,0,2012-12-14 06:53:00
2:53 AM,33.1,23.0,66,30.32,10.0,NNE,3.5,-,N/A,,Clear,30,2012-12-14 07:53:00
3:53 AM,30.9,24.1,76,30.33,10.0,Calm,Calm,-,N/A,,Clear,0,2012-12-14 08:53:00
4:53 AM,32.0,23.0,69,30.34,10.0,Calm,Calm,-,N/A,,Clear,0,2012-12-14 09:53:00
5:53 AM,30.0,23.0,75,30.35,10.0,Calm,Calm,-,N/A,,Clear,0,2012-12-14 10:53:00
6:53 AM,28.0,23.0,81,30.35,10.0,Calm,Calm,-,N/A,,Clear,0,2012-12-14 11:53:00
7:53 AM,28.0,24.1,85,30.37,10.0,Calm,Calm,-,N/A,,Clear,0,2012-12-14 12:53:00
8:53 AM,37.0,27.0,67,30.38,10.0,Calm,Calm,-,N/A,,Clear,0,2012-12-14 13:53:00
9:53 AM,45.0,28.0,52,30.37,10.0,SW,3.5,-,N/A,,Clear,230,2012-12-14 14:53:00
10:53 AM,48.0,26.1,42,30.37,10.0,South,4.6,-,N/A,,Clear,190,2012-12-14 15:53:00
11:53 AM,53.1,27.0,37,30.33,10.0,Variable,4.6,-,N/A,,Clear,0,2012-12-14 16:53:00
12:53 PM,55.0,28.0,35,30.29,10.0,Variable,3.5,-,N/A,,Clear,0,2012-12-14 17:53:00
1:53 PM,57.9,28.0,32,30.25,10.0,Calm,Calm,-,N/A,,Clear,0,2012-12-14 18:53:00
2:53 PM,57.0,27.0,32,30.23,10.0,East,5.8,-,N/A,,Clear,80,2012-12-14 19:53:00
3:53 PM,57.9,26.1,30,30.23,10.0,Calm,Calm,-,N/A,,Clear,0,2012-12-14 20:53:00
4:53 PM,54.0,28.0,37,30.23,10.0,East,4.6,-,N/A,,Clear,90,2012-12-14 21:53:00
5:53 PM,48.0,28.9,48,30.24,10.0,ESE,3.5,-,N/A,,Clear,110,2012-12-14 22:53:00
6:53 PM,45.0,28.9,53,30.24,10.0,ESE,5.8,-,N/A,,Clear,120,2012-12-14 23:53:00
7:53 PM,44.1,28.9,55,30.24,10.0,SE,3.5,-,N/A,,Clear,140,2012-12-15 00:53:00
8:53 PM,42.1,28.9,60,30.25,10.0,Calm,Calm,-,N/A,,Clear,0,2012-12-15 01:53:00
9:53 PM,43.0,30.0,60,30.25,10.0,Calm,Calm,-,N/A,,Clear,0,2012-12-15 02:53:00
10:53 PM,41.0,30.0,65,30.23,10.0,Calm,Calm,-,N/A,,Clear,0,2012-12-15 03:53:00
11:53 PM,41.0,30.0,65,30.23,10.0,Calm,Calm,-,N/A,,Clear,0,2012-12-15 04:53:00